sensor_id;sensor_type;location;lat;lon;timestamp;temperature;humidity
32839;DHT22;19182;41.820;12.808;2023-02-01T00:02:00;1.90;99.90
32839;DHT22;19182;41.820;12.808;2023-02-01T00:06:52;1.90;99.90
32839;DHT22;19182;41.820;12.808;2023-02-01T00:09:19;1.90;99.90
32839;DHT22;19182;41.820;12.808;2023-02-01T00:16:37;1.80;99.90
32839;DHT22;19182;41.820;12.808;2023-02-01T00:19:09;1.70;99.90
32839;DHT22;19182;41.820;12.808;2023-02-01T00:21:37;1.60;99.90
32839;DHT22;19182;41.820;12.808;2023-02-01T00:24:03;1.60;99.90
32839;DHT22;19182;41.820;12.808;2023-02-01T00:26:35;1.70;99.90
32839;DHT22;19182;41.820;12.808;2023-02-01T00:29:03;1.70;99.90
32839;DHT22;19182;41.820;12.808;2023-02-01T00:31:29;1.60;99.90
32839;DHT22;19182;41.820;12.808;2023-02-01T00:36:21;1.60;99.90
32839;DHT22;19182;41.820;12.808;2023-02-01T00:38:47;1.50;99.90
32839;DHT22;19182;41.820;12.808;2023-02-01T00:41:18;1.50;99.90
32839;DHT22;19182;41.820;12.808;2023-02-01T00:43:45;1.50;99.90
32839;DHT22;19182;41.820;12.808;2023-02-01T00:46:13;1.50;99.90
32839;DHT22;19182;41.820;12.808;2023-02-01T00:48:39;1.40;99.90
32839;DHT22;19182;41.820;12.808;2023-02-01T00:51:16;1.10;99.90
32839;DHT22;19182;41.820;12.808;2023-02-01T00:53:42;1.00;99.90
32839;DHT22;19182;41.820;12.808;2023-02-01T00:58:35;1.20;99.90
32839;DHT22;19182;41.820;12.808;2023-02-01T01:03:38;1.10;99.90
32839;DHT22;19182;41.820;12.808;2023-02-01T01:06:10;1.10;99.90
32839;DHT22;19182;41.820;12.808;2023-02-01T01:08:37;1.00;99.90
32839;DHT22;19182;41.820;12.808;2023-02-01T01:11:12;1.00;99.90
32839;DHT22;19182;41.820;12.808;2023-02-01T01:13:38;1.10;99.90
32839;DHT22;19182;41.820;12.808;2023-02-01T01:16:05;0.80;99.90
32839;DHT22;19182;41.820;12.808;2023-02-01T01:18:32;0.80;99.90
32839;DHT22;19182;41.820;12.808;2023-02-01T01:20:59;3.60;99.90
32839;DHT22;19182;41.820;12.808;2023-02-01T01:23:26;0.90;99.90
32839;DHT22;19182;41.820;12.808;2023-02-01T01:25:52;1.00;99.90
32839;DHT22;19182;41.820;12.808;2023-02-01T01:28:18;1.10;99.90
32839;DHT22;19182;41.820;12.808;2023-02-01T01:33:10;1.20;99.90
32839;DHT22;19182;41.820;12.808;2023-02-01T01:35:36;1.20;99.90
32839;DHT22;19182;41.820;12.808;2023-02-01T01:38:02;1.20;99.90
32839;DHT22;19182;41.820;12.808;2023-02-01T01:40:29;1.40;99.90
32839;DHT22;19182;41.820;12.808;2023-02-01T01:42:55;1.40;99.90
32839;DHT22;19182;41.820;12.808;2023-02-01T01:50:18;1.30;99.90
32839;DHT22;19182;41.820;12.808;2023-02-01T01:52:46;1.20;99.90
32839;DHT22;19182;41.820;12.808;2023-02-01T01:55:13;1.30;99.90
32839;DHT22;19182;41.820;12.808;2023-02-01T01:57:42;1.30;99.90
32839;DHT22;19182;41.820;12.808;2023-02-01T02:00:13;1.20;99.90
32839;DHT22;19182;41.820;12.808;2023-02-01T02:02:41;1.40;99.90
32839;DHT22;19182;41.820;12.808;2023-02-01T02:05:09;1.30;99.90
32839;DHT22;19182;41.820;12.808;2023-02-01T02:07:42;1.30;99.90
32839;DHT22;19182;41.820;12.808;2023-02-01T02:10:11;1.30;99.90
32839;DHT22;19182;41.820;12.808;2023-02-01T02:12:43;1.50;99.90
32839;DHT22;19182;41.820;12.808;2023-02-01T02:15:12;1.50;99.90
32839;DHT22;19182;41.820;12.808;2023-02-01T02:20:50;1.50;99.90
32839;DHT22;19182;41.820;12.808;2023-02-01T02:26:18;1.30;99.90
32839;DHT22;19182;41.820;12.808;2023-02-01T02:36:55;1.50;99.90
32839;DHT22;19182;41.820;12.808;2023-02-01T02:48:38;1.30;99.90
32839;DHT22;19182;41.820;12.808;2023-02-01T02:51:17;1.30;99.90
32839;DHT22;19182;41.820;12.808;2023-02-01T02:54:13;1.30;99.90
32839;DHT22;19182;41.820;12.808;2023-02-01T02:56:59;1.20;99.90
32839;DHT22;19182;41.820;12.808;2023-02-01T02:59:46;1.20;99.90
32839;DHT22;19182;41.820;12.808;2023-02-01T03:02:32;1.40;99.90
32839;DHT22;19182;41.820;12.808;2023-02-01T03:08:10;1.50;99.90
32839;DHT22;19182;41.820;12.808;2023-02-01T03:15:53;1.30;99.90
32839;DHT22;19182;41.820;12.808;2023-02-01T03:18:30;1.40;99.90
32839;DHT22;19182;41.820;12.808;2023-02-01T03:20:59;1.40;99.90
32839;DHT22;19182;41.820;12.808;2023-02-01T03:23:30;1.50;99.90
32839;DHT22;19182;41.820;12.808;2023-02-01T03:25:58;1.50;99.90
32839;DHT22;19182;41.820;12.808;2023-02-01T03:28:26;1.50;99.90
32839;DHT22;19182;41.820;12.808;2023-02-01T03:30:53;1.50;99.90
32839;DHT22;19182;41.820;12.808;2023-02-01T03:33:22;1.50;99.90
32839;DHT22;19182;41.820;12.808;2023-02-01T03:36:15;1.50;99.90
32839;DHT22;19182;41.820;12.808;2023-02-01T03:41:58;1.40;99.90
32839;DHT22;19182;41.820;12.808;2023-02-01T03:44:35;1.40;99.90
32839;DHT22;19182;41.820;12.808;2023-02-01T03:47:10;1.70;99.90
32839;DHT22;19182;41.820;12.808;2023-02-01T03:49:39;1.60;99.90
32839;DHT22;19182;41.820;12.808;2023-02-01T03:52:09;1.80;99.90
32839;DHT22;19182;41.820;12.808;2023-02-01T03:54:36;1.70;99.90
32839;DHT22;19182;41.820;12.808;2023-02-01T03:57:08;1.70;99.90
32839;DHT22;19182;41.820;12.808;2023-02-01T03:59:41;1.80;99.90
32839;DHT22;19182;41.820;12.808;2023-02-01T04:04:34;1.80;99.90
32839;DHT22;19182;41.820;12.808;2023-02-01T04:07:00;1.70;99.90
32839;DHT22;19182;41.820;12.808;2023-02-01T04:16:45;1.60;99.90
32839;DHT22;19182;41.820;12.808;2023-02-01T04:19:10;1.60;99.90
32839;DHT22;19182;41.820;12.808;2023-02-01T04:24:03;1.60;99.90
32839;DHT22;19182;41.820;12.808;2023-02-01T04:26:29;1.60;99.90
32839;DHT22;19182;41.820;12.808;2023-02-01T04:28:54;1.60;99.90
32839;DHT22;19182;41.820;12.808;2023-02-01T04:31:20;1.60;99.90
32839;DHT22;19182;41.820;12.808;2023-02-01T04:33:51;1.60;99.90
32839;DHT22;19182;41.820;12.808;2023-02-01T04:36:18;1.50;99.90
32839;DHT22;19182;41.820;12.808;2023-02-01T04:41:12;1.50;99.90
32839;DHT22;19182;41.820;12.808;2023-02-01T04:46:04;1.40;99.90
32839;DHT22;19182;41.820;12.808;2023-02-01T04:50:56;1.40;99.90
32839;DHT22;19182;41.820;12.808;2023-02-01T04:53:22;1.40;99.90
32839;DHT22;19182;41.820;12.808;2023-02-01T04:55:48;1.50;99.90
32839;DHT22;19182;41.820;12.808;2023-02-01T04:58:15;1.50;99.90
32839;DHT22;19182;41.820;12.808;2023-02-01T05:11:20;1.30;99.90
32839;DHT22;19182;41.820;12.808;2023-02-01T05:14:05;1.30;99.90
32839;DHT22;19182;41.820;12.808;2023-02-01T05:16:30;1.30;99.90
32839;DHT22;19182;41.820;12.808;2023-02-01T05:18:59;1.20;99.90
32839;DHT22;19182;41.820;12.808;2023-02-01T05:23:51;1.30;99.90
32839;DHT22;19182;41.820;12.808;2023-02-01T05:26:35;1.40;99.90
32839;DHT22;19182;41.820;12.808;2023-02-01T05:36:20;1.20;99.90
32839;DHT22;19182;41.820;12.808;2023-02-01T05:43:37;1.20;99.90
32839;DHT22;19182;41.820;12.808;2023-02-01T05:53:21;1.20;99.90
32839;DHT22;19182;41.820;12.808;2023-02-01T05:55:47;1.10;99.90
32839;DHT22;19182;41.820;12.808;2023-02-01T06:03:07;1.20;99.90
32839;DHT22;19182;41.820;12.808;2023-02-01T06:07:59;1.20;99.90
32839;DHT22;19182;41.820;12.808;2023-02-01T06:10:24;1.20;99.90
32839;DHT22;19182;41.820;12.808;2023-02-01T06:17:44;1.20;99.90
32839;DHT22;19182;41.820;12.808;2023-02-01T06:22:37;1.20;99.90
32839;DHT22;19182;41.820;12.808;2023-02-01T06:25:08;1.20;99.90
32839;DHT22;19182;41.820;12.808;2023-02-01T06:27:34;1.40;99.90
32839;DHT22;19182;41.820;12.808;2023-02-01T06:30:02;1.50;99.90
32839;DHT22;19182;41.820;12.808;2023-02-01T06:32:28;1.50;99.90
32839;DHT22;19182;41.820;12.808;2023-02-01T06:34:55;1.40;99.90
32839;DHT22;19182;41.820;12.808;2023-02-01T06:39:49;1.30;99.90
32839;DHT22;19182;41.820;12.808;2023-02-01T06:42:15;1.40;99.90
32839;DHT22;19182;41.820;12.808;2023-02-01T06:44:41;1.40;99.90
32839;DHT22;19182;41.820;12.808;2023-02-01T06:49:36;1.50;99.90
32839;DHT22;19182;41.820;12.808;2023-02-01T06:52:02;1.50;99.90
32839;DHT22;19182;41.820;12.808;2023-02-01T06:54:28;1.60;99.90
32839;DHT22;19182;41.820;12.808;2023-02-01T06:59:21;1.80;99.90
32839;DHT22;19182;41.820;12.808;2023-02-01T07:01:46;1.90;99.90
32839;DHT22;19182;41.820;12.808;2023-02-01T07:04:12;2.00;99.90
32839;DHT22;19182;41.820;12.808;2023-02-01T07:06:39;2.20;99.90
32839;DHT22;19182;41.820;12.808;2023-02-01T07:09:05;2.20;99.90
32839;DHT22;19182;41.820;12.808;2023-02-01T07:13:58;2.50;99.90
32839;DHT22;19182;41.820;12.808;2023-02-01T07:16:23;2.60;99.90
32839;DHT22;19182;41.820;12.808;2023-02-01T07:18:51;3.00;99.90
32839;DHT22;19182;41.820;12.808;2023-02-01T07:21:17;3.00;99.90
32839;DHT22;19182;41.820;12.808;2023-02-01T07:26:11;3.50;99.90
32839;DHT22;19182;41.820;12.808;2023-02-01T07:28:41;3.60;99.90
32839;DHT22;19182;41.820;12.808;2023-02-01T07:31:10;3.90;99.90
32839;DHT22;19182;41.820;12.808;2023-02-01T07:33:36;4.90;99.90
32839;DHT22;19182;41.820;12.808;2023-02-01T07:36:04;6.50;99.90
32839;DHT22;19182;41.820;12.808;2023-02-01T07:38:30;8.30;99.90
32839;DHT22;19182;41.820;12.808;2023-02-01T07:41:00;9.70;99.90
32839;DHT22;19182;41.820;12.808;2023-02-01T07:43:27;11.10;99.90
32839;DHT22;19182;41.820;12.808;2023-02-01T07:45:54;12.20;99.90
32839;DHT22;19182;41.820;12.808;2023-02-01T07:48:21;13.00;99.90
32839;DHT22;19182;41.820;12.808;2023-02-01T07:50:47;13.30;99.90
32839;DHT22;19182;41.820;12.808;2023-02-01T07:53:13;14.20;99.90
32839;DHT22;19182;41.820;12.808;2023-02-01T07:55:39;14.70;99.90
32839;DHT22;19182;41.820;12.808;2023-02-01T07:58:05;15.10;99.90
32839;DHT22;19182;41.820;12.808;2023-02-01T08:00:31;15.70;99.90
32839;DHT22;19182;41.820;12.808;2023-02-01T08:03:17;15.80;99.90
32839;DHT22;19182;41.820;12.808;2023-02-01T08:05:42;15.00;99.90
32839;DHT22;19182;41.820;12.808;2023-02-01T08:08:08;13.90;99.90
32839;DHT22;19182;41.820;12.808;2023-02-01T08:10:34;13.30;99.90
32839;DHT22;19182;41.820;12.808;2023-02-01T08:13:01;12.30;99.90
32839;DHT22;19182;41.820;12.808;2023-02-01T08:15:28;12.70;99.90
32839;DHT22;19182;41.820;12.808;2023-02-01T08:17:53;13.50;99.90
32839;DHT22;19182;41.820;12.808;2023-02-01T08:20:23;14.60;99.90
32839;DHT22;19182;41.820;12.808;2023-02-01T08:22:49;14.70;99.90
32839;DHT22;19182;41.820;12.808;2023-02-01T08:25:15;15.00;99.90
32839;DHT22;19182;41.820;12.808;2023-02-01T08:27:41;14.50;99.90
32839;DHT22;19182;41.820;12.808;2023-02-01T08:30:09;14.30;99.90
32839;DHT22;19182;41.820;12.808;2023-02-01T08:32:35;14.60;99.90
32839;DHT22;19182;41.820;12.808;2023-02-01T08:35:01;15.20;99.90
32839;DHT22;19182;41.820;12.808;2023-02-01T08:37:28;16.30;99.90
32839;DHT22;19182;41.820;12.808;2023-02-01T08:39:53;17.30;99.90
32839;DHT22;19182;41.820;12.808;2023-02-01T08:42:19;16.80;99.90
32839;DHT22;19182;41.820;12.808;2023-02-01T08:45:04;16.50;99.90
32839;DHT22;19182;41.820;12.808;2023-02-01T08:47:30;16.40;99.90
32839;DHT22;19182;41.820;12.808;2023-02-01T08:49:56;16.90;99.90
32839;DHT22;19182;41.820;12.808;2023-02-01T08:52:22;17.10;99.90
32839;DHT22;19182;41.820;12.808;2023-02-01T08:54:49;17.60;99.90
32839;DHT22;19182;41.820;12.808;2023-02-01T08:57:15;18.30;99.90
32839;DHT22;19182;41.820;12.808;2023-02-01T08:59:43;18.50;99.90
32839;DHT22;19182;41.820;12.808;2023-02-01T09:02:13;19.70;99.90
32839;DHT22;19182;41.820;12.808;2023-02-01T09:04:39;20.20;99.90
32839;DHT22;19182;41.820;12.808;2023-02-01T09:07:06;20.80;99.90
32839;DHT22;19182;41.820;12.808;2023-02-01T09:09:31;21.00;99.90
32839;DHT22;19182;41.820;12.808;2023-02-01T09:11:57;20.70;99.90
32839;DHT22;19182;41.820;12.808;2023-02-01T09:14:22;20.60;99.80
32839;DHT22;19182;41.820;12.808;2023-02-01T09:16:48;21.10;98.30
32839;DHT22;19182;41.820;12.808;2023-02-01T09:19:15;20.20;99.90
32839;DHT22;19182;41.820;12.808;2023-02-01T09:21:41;21.10;98.40
32839;DHT22;19182;41.820;12.808;2023-02-01T09:24:10;21.90;97.10
32839;DHT22;19182;41.820;12.808;2023-02-01T09:26:36;21.70;96.70
32839;DHT22;19182;41.820;12.808;2023-02-01T09:29:02;22.40;95.20
32839;DHT22;19182;41.820;12.808;2023-02-01T09:31:29;21.10;96.00
32839;DHT22;19182;41.820;12.808;2023-02-01T09:33:56;21.10;95.70
32839;DHT22;19182;41.820;12.808;2023-02-01T09:36:22;20.70;95.60
32839;DHT22;19182;41.820;12.808;2023-02-01T09:38:48;19.80;98.00
32839;DHT22;19182;41.820;12.808;2023-02-01T09:44:53;19.90;98.10
32839;DHT22;19182;41.820;12.808;2023-02-01T09:46:54;20.70;97.30
32839;DHT22;19182;41.820;12.808;2023-02-01T09:49:29;20.70;96.20
32839;DHT22;19182;41.820;12.808;2023-02-01T09:51:57;21.10;95.60
32839;DHT22;19182;41.820;12.808;2023-02-01T09:54:36;21.90;94.90
32839;DHT22;19182;41.820;12.808;2023-02-01T09:57:07;21.40;95.00
32839;DHT22;19182;41.820;12.808;2023-02-01T09:59:43;20.40;95.30
32839;DHT22;19182;41.820;12.808;2023-02-01T10:02:23;20.10;95.70
32839;DHT22;19182;41.820;12.808;2023-02-01T10:04:49;19.30;96.50
32839;DHT22;19182;41.820;12.808;2023-02-01T10:10:09;17.70;99.90
32839;DHT22;19182;41.820;12.808;2023-02-01T10:16:04;17.00;99.90
32839;DHT22;19182;41.820;12.808;2023-02-01T10:27:18;19.20;98.50
32839;DHT22;19182;41.820;12.808;2023-02-01T10:29:51;18.80;99.60
32839;DHT22;19182;41.820;12.808;2023-02-01T10:32:33;19.50;97.90
32839;DHT22;19182;41.820;12.808;2023-02-01T10:35:18;19.50;96.60
32839;DHT22;19182;41.820;12.808;2023-02-01T10:37:45;19.60;97.70
32839;DHT22;19182;41.820;12.808;2023-02-01T10:40:16;20.40;96.40
32839;DHT22;19182;41.820;12.808;2023-02-01T10:42:44;20.80;95.40
32839;DHT22;19182;41.820;12.808;2023-02-01T10:45:14;21.80;94.10
32839;DHT22;19182;41.820;12.808;2023-02-01T10:47:41;22.30;92.30
32839;DHT22;19182;41.820;12.808;2023-02-01T10:52:36;21.00;93.80
32839;DHT22;19182;41.820;12.808;2023-02-01T10:55:26;20.40;94.30
32839;DHT22;19182;41.820;12.808;2023-02-01T10:57:59;19.40;94.50
32839;DHT22;19182;41.820;12.808;2023-02-01T11:00:26;18.20;96.50
32839;DHT22;19182;41.820;12.808;2023-02-01T11:02:53;17.80;98.10
32839;DHT22;19182;41.820;12.808;2023-02-01T11:05:19;17.70;98.20
32839;DHT22;19182;41.820;12.808;2023-02-01T11:07:53;17.60;98.30
32839;DHT22;19182;41.820;12.808;2023-02-01T11:10:41;18.00;99.30
32839;DHT22;19182;41.820;12.808;2023-02-01T11:13:15;17.80;98.50
32839;DHT22;19182;41.820;12.808;2023-02-01T11:15:45;18.50;98.10
32839;DHT22;19182;41.820;12.808;2023-02-01T11:18:19;18.40;98.50
32839;DHT22;19182;41.820;12.808;2023-02-01T11:20:48;19.10;99.00
32839;DHT22;19182;41.820;12.808;2023-02-01T11:23:16;20.20;97.00
32839;DHT22;19182;41.820;12.808;2023-02-01T11:25:56;19.90;96.20
32839;DHT22;19182;41.820;12.808;2023-02-01T11:28:34;19.20;99.20
32839;DHT22;19182;41.820;12.808;2023-02-01T11:31:09;18.70;99.90
32839;DHT22;19182;41.820;12.808;2023-02-01T11:33:41;18.40;99.90
32839;DHT22;19182;41.820;12.808;2023-02-01T11:36:15;18.10;99.90
32839;DHT22;19182;41.820;12.808;2023-02-01T11:38:46;19.00;99.90
32839;DHT22;19182;41.820;12.808;2023-02-01T11:41:26;19.30;99.90
32839;DHT22;19182;41.820;12.808;2023-02-01T11:43:59;18.50;99.90
32839;DHT22;19182;41.820;12.808;2023-02-01T11:46:30;17.80;99.90
32839;DHT22;19182;41.820;12.808;2023-02-01T11:48:57;17.60;99.90
32839;DHT22;19182;41.820;12.808;2023-02-01T11:52:03;17.80;99.90
32839;DHT22;19182;41.820;12.808;2023-02-01T12:00:20;18.60;99.90
32839;DHT22;19182;41.820;12.808;2023-02-01T12:09:38;19.50;99.90
32839;DHT22;19182;41.820;12.808;2023-02-01T12:12:33;22.60;99.90
32839;DHT22;19182;41.820;12.808;2023-02-01T12:21:10;19.10;99.90
32839;DHT22;19182;41.820;12.808;2023-02-01T12:24:01;18.50;99.90
32839;DHT22;19182;41.820;12.808;2023-02-01T12:26:50;18.50;99.90
32839;DHT22;19182;41.820;12.808;2023-02-01T12:29:23;18.10;99.90
32839;DHT22;19182;41.820;12.808;2023-02-01T12:43:22;18.20;99.90
32839;DHT22;19182;41.820;12.808;2023-02-01T12:46:30;18.00;99.90
32839;DHT22;19182;41.820;12.808;2023-02-01T12:48:59;17.60;99.90
32839;DHT22;19182;41.820;12.808;2023-02-01T12:51:33;17.40;99.90
32839;DHT22;19182;41.820;12.808;2023-02-01T12:54:12;18.00;99.90
32839;DHT22;19182;41.820;12.808;2023-02-01T12:56:55;18.70;99.90
32839;DHT22;19182;41.820;12.808;2023-02-01T12:59:29;18.90;99.90
32839;DHT22;19182;41.820;12.808;2023-02-01T13:02:04;18.90;99.90
32839;DHT22;19182;41.820;12.808;2023-02-01T13:04:44;19.10;99.90
32839;DHT22;19182;41.820;12.808;2023-02-01T13:07:18;19.00;99.90
32839;DHT22;19182;41.820;12.808;2023-02-01T13:09:59;19.20;99.90
32839;DHT22;19182;41.820;12.808;2023-02-01T13:15:46;19.60;99.90
32839;DHT22;19182;41.820;12.808;2023-02-01T13:18:20;19.40;99.90
32839;DHT22;19182;41.820;12.808;2023-02-01T13:20:49;19.50;99.90
32839;DHT22;19182;41.820;12.808;2023-02-01T13:25:51;19.50;99.90
32839;DHT22;19182;41.820;12.808;2023-02-01T13:39:39;15.60;99.90
32839;DHT22;19182;41.820;12.808;2023-02-01T13:42:33;15.20;99.90
32839;DHT22;19182;41.820;12.808;2023-02-01T13:45:19;14.80;99.90
32839;DHT22;19182;41.820;12.808;2023-02-01T13:47:47;14.60;99.90
32839;DHT22;19182;41.820;12.808;2023-02-01T13:50:36;14.30;99.90
32839;DHT22;19182;41.820;12.808;2023-02-01T13:55:41;14.00;99.90
32839;DHT22;19182;41.820;12.808;2023-02-01T13:58:29;13.80;99.90
32839;DHT22;19182;41.820;12.808;2023-02-01T14:04:06;13.40;99.90
32839;DHT22;19182;41.820;12.808;2023-02-01T14:06:53;13.40;99.90
32839;DHT22;19182;41.820;12.808;2023-02-01T14:09:32;13.40;99.90
32839;DHT22;19182;41.820;12.808;2023-02-01T14:15:23;13.30;99.90
32839;DHT22;19182;41.820;12.808;2023-02-01T14:17:49;13.20;99.90
32839;DHT22;19182;41.820;12.808;2023-02-01T14:20:45;13.00;99.90
32839;DHT22;19182;41.820;12.808;2023-02-01T14:23:16;12.90;99.90
32839;DHT22;19182;41.820;12.808;2023-02-01T14:25:43;12.90;99.90
32839;DHT22;19182;41.820;12.808;2023-02-01T14:28:21;12.80;99.90
32839;DHT22;19182;41.820;12.808;2023-02-01T14:30:48;12.80;99.90
32839;DHT22;19182;41.820;12.808;2023-02-01T14:33:22;12.80;99.90
32839;DHT22;19182;41.820;12.808;2023-02-01T14:36:12;12.70;99.90
32839;DHT22;19182;41.820;12.808;2023-02-01T14:38:39;12.70;99.90
32839;DHT22;19182;41.820;12.808;2023-02-01T14:41:33;12.60;99.90
32839;DHT22;19182;41.820;12.808;2023-02-01T14:49:37;12.20;99.90
32839;DHT22;19182;41.820;12.808;2023-02-01T14:52:09;12.10;99.90
32839;DHT22;19182;41.820;12.808;2023-02-01T14:54:39;12.00;99.90
32839;DHT22;19182;41.820;12.808;2023-02-01T14:57:08;12.00;99.90
32839;DHT22;19182;41.820;12.808;2023-02-01T14:59:36;11.80;99.90
32839;DHT22;19182;41.820;12.808;2023-02-01T15:02:16;11.70;99.90
32839;DHT22;19182;41.820;12.808;2023-02-01T15:04:43;11.70;99.90
32839;DHT22;19182;41.820;12.808;2023-02-01T15:07:12;11.70;99.90
32839;DHT22;19182;41.820;12.808;2023-02-01T15:09:47;11.70;99.90
32839;DHT22;19182;41.820;12.808;2023-02-01T15:12:17;11.60;99.90
32839;DHT22;19182;41.820;12.808;2023-02-01T15:14:48;11.60;99.90
32839;DHT22;19182;41.820;12.808;2023-02-01T15:17:34;11.50;99.90
32839;DHT22;19182;41.820;12.808;2023-02-01T15:20:16;11.40;99.90
32839;DHT22;19182;41.820;12.808;2023-02-01T15:22:43;11.20;99.90
32839;DHT22;19182;41.820;12.808;2023-02-01T15:25:29;11.00;99.90
32839;DHT22;19182;41.820;12.808;2023-02-01T15:27:56;11.00;99.90
32839;DHT22;19182;41.820;12.808;2023-02-01T15:30:27;11.00;99.90
32839;DHT22;19182;41.820;12.808;2023-02-01T15:33:13;10.90;99.90
32839;DHT22;19182;41.820;12.808;2023-02-01T15:35:49;10.90;99.90
32839;DHT22;19182;41.820;12.808;2023-02-01T15:40:57;11.00;99.90
32839;DHT22;19182;41.820;12.808;2023-02-01T15:43:25;10.50;99.90
32839;DHT22;19182;41.820;12.808;2023-02-01T15:45:51;10.40;99.90
32839;DHT22;19182;41.820;12.808;2023-02-01T15:48:24;10.40;99.90
32839;DHT22;19182;41.820;12.808;2023-02-01T15:50:51;10.20;99.90
32839;DHT22;19182;41.820;12.808;2023-02-01T15:53:21;10.00;99.90
32839;DHT22;19182;41.820;12.808;2023-02-01T15:55:50;9.90;99.90
32839;DHT22;19182;41.820;12.808;2023-02-01T15:58:22;9.80;99.90
32839;DHT22;19182;41.820;12.808;2023-02-01T16:00:55;9.70;99.90
32839;DHT22;19182;41.820;12.808;2023-02-01T16:03:33;9.60;99.90
32839;DHT22;19182;41.820;12.808;2023-02-01T16:06:04;9.40;99.90
32839;DHT22;19182;41.820;12.808;2023-02-01T16:08:31;9.30;99.90
32839;DHT22;19182;41.820;12.808;2023-02-01T16:13:36;9.10;99.90
32839;DHT22;19182;41.820;12.808;2023-02-01T16:16:02;8.90;99.90
32839;DHT22;19182;41.820;12.808;2023-02-01T16:18:33;8.80;99.90
32839;DHT22;19182;41.820;12.808;2023-02-01T16:20:58;8.60;99.90
32839;DHT22;19182;41.820;12.808;2023-02-01T16:23:25;8.30;99.90
32839;DHT22;19182;41.820;12.808;2023-02-01T16:25:51;8.20;99.90
32839;DHT22;19182;41.820;12.808;2023-02-01T16:28:17;8.20;99.90
32839;DHT22;19182;41.820;12.808;2023-02-01T16:30:42;8.00;99.90
32839;DHT22;19182;41.820;12.808;2023-02-01T16:33:12;8.00;99.90
32839;DHT22;19182;41.820;12.808;2023-02-01T16:35:42;7.80;99.90
32839;DHT22;19182;41.820;12.808;2023-02-01T16:38:12;7.60;99.90
32839;DHT22;19182;41.820;12.808;2023-02-01T16:40:39;7.50;99.90
32839;DHT22;19182;41.820;12.808;2023-02-01T16:43:18;7.30;99.90
32839;DHT22;19182;41.820;12.808;2023-02-01T16:45:45;7.20;99.90
32839;DHT22;19182;41.820;12.808;2023-02-01T16:48:24;7.20;99.90
32839;DHT22;19182;41.820;12.808;2023-02-01T16:50:53;7.10;99.90
32839;DHT22;19182;41.820;12.808;2023-02-01T16:53:20;7.00;99.90
32839;DHT22;19182;41.820;12.808;2023-02-01T16:55:47;6.80;99.90
32839;DHT22;19182;41.820;12.808;2023-02-01T16:58:16;6.70;99.90
32839;DHT22;19182;41.820;12.808;2023-02-01T17:00:42;6.60;99.90
32839;DHT22;19182;41.820;12.808;2023-02-01T17:03:10;6.40;99.90
32839;DHT22;19182;41.820;12.808;2023-02-01T17:05:36;6.70;99.90
32839;DHT22;19182;41.820;12.808;2023-02-01T17:08:05;6.70;99.90
32839;DHT22;19182;41.820;12.808;2023-02-01T17:10:32;6.60;99.90
32839;DHT22;19182;41.820;12.808;2023-02-01T17:12:58;6.70;99.90
32839;DHT22;19182;41.820;12.808;2023-02-01T17:15:26;6.70;99.90
32839;DHT22;19182;41.820;12.808;2023-02-01T17:17:53;6.70;99.90
32839;DHT22;19182;41.820;12.808;2023-02-01T17:20:24;6.70;99.90
32839;DHT22;19182;41.820;12.808;2023-02-01T17:22:52;6.60;99.90
32839;DHT22;19182;41.820;12.808;2023-02-01T17:25:19;6.40;99.90
32839;DHT22;19182;41.820;12.808;2023-02-01T17:27:47;6.40;99.90
32839;DHT22;19182;41.820;12.808;2023-02-01T17:30:13;6.30;99.90
32839;DHT22;19182;41.820;12.808;2023-02-01T17:32:39;6.30;99.90
32839;DHT22;19182;41.820;12.808;2023-02-01T17:35:15;6.20;99.90
32839;DHT22;19182;41.820;12.808;2023-02-01T17:37:42;6.20;99.90
32839;DHT22;19182;41.820;12.808;2023-02-01T17:40:08;6.20;99.90
32839;DHT22;19182;41.820;12.808;2023-02-01T17:42:35;6.10;99.90
32839;DHT22;19182;41.820;12.808;2023-02-01T17:47:57;5.90;99.90
32839;DHT22;19182;41.820;12.808;2023-02-01T17:50:25;5.80;99.90
32839;DHT22;19182;41.820;12.808;2023-02-01T17:52:53;5.70;99.90
32839;DHT22;19182;41.820;12.808;2023-02-01T17:55:21;5.70;99.90
32839;DHT22;19182;41.820;12.808;2023-02-01T17:57:49;5.60;99.90
32839;DHT22;19182;41.820;12.808;2023-02-01T18:00:15;5.60;99.90
32839;DHT22;19182;41.820;12.808;2023-02-01T18:02:42;5.50;99.90
32839;DHT22;19182;41.820;12.808;2023-02-01T18:05:40;5.40;99.90
32839;DHT22;19182;41.820;12.808;2023-02-01T18:08:07;5.40;99.90
32839;DHT22;19182;41.820;12.808;2023-02-01T18:10:33;5.30;99.90
32839;DHT22;19182;41.820;12.808;2023-02-01T18:13:03;5.30;99.90
32839;DHT22;19182;41.820;12.808;2023-02-01T18:15:30;5.10;99.90
32839;DHT22;19182;41.820;12.808;2023-02-01T18:17:56;5.00;99.90
32839;DHT22;19182;41.820;12.808;2023-02-01T18:20:23;4.90;99.90
32839;DHT22;19182;41.820;12.808;2023-02-01T18:22:49;5.00;99.90
32839;DHT22;19182;41.820;12.808;2023-02-01T18:25:25;4.90;99.90
32839;DHT22;19182;41.820;12.808;2023-02-01T18:27:53;4.90;99.90
32839;DHT22;19182;41.820;12.808;2023-02-01T18:30:20;4.80;99.90
32839;DHT22;19182;41.820;12.808;2023-02-01T18:32:48;4.80;99.90
32839;DHT22;19182;41.820;12.808;2023-02-01T18:35:23;4.90;99.90
32839;DHT22;19182;41.820;12.808;2023-02-01T18:37:50;4.90;99.90
32839;DHT22;19182;41.820;12.808;2023-02-01T18:40:22;4.70;99.90
32839;DHT22;19182;41.820;12.808;2023-02-01T18:42:50;4.60;99.90
32839;DHT22;19182;41.820;12.808;2023-02-01T18:45:30;4.60;99.90
32839;DHT22;19182;41.820;12.808;2023-02-01T18:47:58;4.60;99.90
32839;DHT22;19182;41.820;12.808;2023-02-01T18:50:24;4.50;99.90
32839;DHT22;19182;41.820;12.808;2023-02-01T18:52:54;4.40;99.90
32839;DHT22;19182;41.820;12.808;2023-02-01T18:55:22;4.40;99.90
32839;DHT22;19182;41.820;12.808;2023-02-01T18:57:49;4.40;99.90
32839;DHT22;19182;41.820;12.808;2023-02-01T19:00:17;4.30;99.90
32839;DHT22;19182;41.820;12.808;2023-02-01T19:02:43;4.30;99.90
32839;DHT22;19182;41.820;12.808;2023-02-01T19:05:10;4.30;99.90
32839;DHT22;19182;41.820;12.808;2023-02-01T19:07:36;4.30;99.90
32839;DHT22;19182;41.820;12.808;2023-02-01T19:10:03;4.30;99.90
32839;DHT22;19182;41.820;12.808;2023-02-01T19:12:31;4.30;99.90
32839;DHT22;19182;41.820;12.808;2023-02-01T19:14:58;4.30;99.90
32839;DHT22;19182;41.820;12.808;2023-02-01T19:17:27;4.20;99.90
32839;DHT22;19182;41.820;12.808;2023-02-01T19:19:53;4.20;99.90
32839;DHT22;19182;41.820;12.808;2023-02-01T19:22:19;4.20;99.90
32839;DHT22;19182;41.820;12.808;2023-02-01T19:24:45;4.20;99.90
32839;DHT22;19182;41.820;12.808;2023-02-01T19:27:11;4.20;99.90
32839;DHT22;19182;41.820;12.808;2023-02-01T19:29:37;4.10;99.90
32839;DHT22;19182;41.820;12.808;2023-02-01T19:32:06;4.00;99.90